• Join FlightAware (Why Join?)
  • Login
  • US Flag 
05:02AM EDT


 

Airport Tracker/Info


-or-


 

Live Flight TrackerFlight Track Log ✈ SWA8500 ✈ 26-Apr-2014 ✈ KMDW - KBWI

Flight Track Log - Related Links

Times and Time Zones

All times are in EDT time to prevent confusion due to time zone crossing. See the SWA8500 flight status page for this flight to view local times or setup timezone preferences in your user account.

Time Position Orientation Groundspeed Altitude Reporting Facility
EDT Latitude Longitude Course Direction KTS MPH feet Rate Location/Type
06:32AM 41.8000 -87.7000 90° East 176 203 2,900  Level Chicago TRACON
06:33AM 41.7989 -87.6533 92° East 205 236 4,000 2,640 Climbing Chicago Center
06:34AM 41.7942 -87.5544 94° East 263 303 6,900 3,300 Climbing Chicago Center
06:35AM 41.7875 -87.4389 94° East 307 353 10,700 3,660 Climbing Chicago Center
06:36AM 41.7783 -87.3081 95° East 347 399 14,400 3,480 Climbing Chicago Center
06:37AM 41.7694 -87.1678 95° East 378 435 17,700 2,760 Climbing Chicago Center
06:38AM 41.7500 -86.8820 90° East  Level FlightAware Approximate
06:38AM 41.7611 -87.0306 95° East 397 457 20,000  Level Chicago Center
06:39AM 41.7631 -86.8706 89° East 424 488 22,900 2,820 Climbing Chicago Center
06:40AM 41.7664 -86.6903 89° East 439 505 25,800 3,120 Climbing Chicago Center
06:41AM 41.7658 -86.5239 90° East 448 516 29,200 2,700 Climbing Chicago Center
06:42AM 41.7678 -86.3544 89° East 453 521 31,200 1,980 Climbing Chicago Center
06:43AM 41.7600 -86.1764 93° East 475 547 33,200 1,980 Climbing Chicago Center
06:44AM 41.7483 -85.9975 95° East 479 551 35,200 1,860 Climbing Chicago Center
06:45AM 41.7364 -85.8164 95° East 486 559 37,000 840 Climbing Chicago Center
06:46AM 41.7247 -85.6303 95° East 497 572 37,000  Level Chicago Center
06:47AM 41.7128 -85.4636 95° East 493 567 37,000  Level Chicago Center
06:48AM 41.7000 -85.2858 95° East 488 562 37,000  Level Chicago Center
06:49AM 41.6911 -85.1092 94° East 499 574 37,000  Level Chicago Center
06:50AM 41.6778 -84.9336 96° East 481 554 37,000  Level Chicago Center
06:51AM 41.6633 -84.7181 95° East 481 554 37,000  Level Cleveland Center
06:52AM 41.6281 -84.5422 105° East 495 570 37,000  Level Cleveland Center
06:53AM 41.5536 -84.3442 117° Southeast 495 570 37,000  Level Cleveland Center
06:54AM 41.4997 -84.1986 116° Southeast 498 573 37,000  Level Cleveland Center
06:55AM 41.4383 -84.0322 116° Southeast 502 578 37,000  Level Cleveland Center
06:56AM 41.3761 -83.8653 116° Southeast 503 579 37,000  Level Cleveland Center
06:57AM 41.3022 -83.6658 116° Southeast 505 581 37,000  Level Cleveland Center
06:58AM 41.2414 -83.5022 116° Southeast 503 579 37,000  Level Cleveland Center
06:59AM 41.1792 -83.3386 117° Southeast 502 578 37,000  Level Cleveland Center
07:00AM 41.1167 -83.1761 117° Southeast 500 575 37,000  Level Cleveland Center
07:01AM 41.0519 -83.0053 117° Southeast 500 575 37,000  Level Cleveland Center
07:02AM 40.9889 -82.8406 117° Southeast 500 575 37,000  Level Cleveland Center
07:03AM 40.9469 -82.7311 117° Southeast 500 575 37,000  Level Cleveland Center
07:04AM 40.8836 -82.5683 117° Southeast 499 574 37,000  Level Cleveland Center
07:05AM 40.8197 -82.4053 117° Southeast 499 574 37,000  Level Cleveland Center
07:06AM 40.7569 -82.2422 117° Southeast 499 574 37,000  Level Cleveland Center
07:07AM 40.6936 -82.0803 117° Southeast 499 574 37,000  Level Cleveland Center
07:08AM 40.6292 -81.9183 118° Southeast 498 573 37,000  Level Cleveland Center
07:09AM 40.5642 -81.7567 118° Southeast 498 573 37,000  Level Cleveland Center
07:10AM 40.5000 -81.5956 118° Southeast 498 573 37,000 -60 Level Cleveland Center
07:11AM 40.4356 -81.4350 118° Southeast 497 572 36,900 -480 Descending Cleveland Center
07:12AM 40.3653 -81.2600 118° Southeast 498 573 36,100 -720 Descending Cleveland Center
07:13AM 40.3000 -81.1011 118° Southeast 498 573 35,500 -600 Descending Cleveland Center
07:14AM 40.2339 -80.9422 119° Southeast 498 573 35,000 -360 Descending Cleveland Center
07:15AM 40.1694 -80.7842 118° Southeast 498 573 34,800 -600 Descending Cleveland Center
07:16AM 40.1036 -80.6236 118° Southeast 500 575 33,800 -900 Descending Cleveland Center
07:17AM 40.0233 -80.4314 119° Southeast 507 583 33,000 -780 Descending Cleveland Center
07:18AM 39.9572 -80.2731 119° Southeast 506 582 32,300 -1,080 Descending Cleveland Center
07:19AM 39.8903 -80.1131 119° Southeast 506 582 30,900 -1,620 Descending Cleveland Center
07:20AM 39.8400 -79.9453 111° Southeast 502 578 29,100 -960 Descending Cleveland Center
07:21AM 39.8025 -79.7667 105° East 516 594 29,000 -60 Descending Cleveland Center
07:22AM 39.7653 -79.5856 105° East 518 596 29,000  Level Cleveland Center
07:23AM 39.7283 -79.4083 105° East 514 592 29,000 -1,080 Level Cleveland Center
07:24AM 39.6822 -79.1967 106° East 512 589 26,900 -1,680 Descending Cleveland Center
07:25AM 39.6481 -79.0283 105° East 484 557 25,600 -1,020 Descending Cleveland Center
07:26AM 39.6161 -78.8814 106° East 469 540 24,900 -720 Descending Cleveland Center
07:27AM 39.5800 -78.7203 106° East 466 536 24,200 -1,320 Descending Cleveland Center
07:29AM 39.5469 -78.5664 106° East 447 514 22,300 -2,220 Descending Cleveland Center
07:30AM 39.5142 -78.4178 106° East 433 498 19,800 -2,820 Descending Cleveland Center
07:30AM 39.4808 -78.2725 107° East 422 486 17,100 -2,580 Descending Washington Center
07:31AM 39.4500 -78.1344 106° East 406 467 15,000 -1,260 Descending Washington Center
07:32AM 39.4333 -77.9975 99° East 393 452 14,500 -660 Descending Washington Center
07:33AM 39.4381 -77.8561 87° East 389 448 13,700 -840 Descending Washington Center
07:35AM 39.4403 -77.7225 89° East 377 434 12,800 -840 Descending Washington Center
07:36AM 39.4419 -77.5956 89° East 356 410 12,000 -780 Descending Washington Center
07:37AM 39.4444 -77.4658 89° East 356 410 11,300 -480 Descending Washington Center
07:38AM 39.4489 -77.3394 87° East 352 405 11,100 -180 Descending Washington Center
07:39AM 39.4667 -77.2000 81° East 326 375 11,000 -60 Descending Potomac TRACON
07:40AM 39.4833 -77.0833 79° East 338 389 11,000 -360 Level Potomac TRACON
07:40AM 39.4833 -76.9833 90° East 328 377 10,400 -1,260 Descending Potomac TRACON
07:42AM 39.4750 -76.8508 95° East 319 367 8,300 -1,800 Descending Washington Center
07:43AM 39.4644 -76.7369 97° East 319 367 6,300 -1,860 Descending Washington Center
07:44AM 39.4203 -76.6378 120° Southeast 329 379 4,500 -1,560 Descending Washington Center
07:44AM 39.3667 -76.5833 142° Southeast 312 359 3,800 -1,380 Descending Potomac TRACON
07:45AM 39.3167 -76.5333 142° Southeast 300 345 2,500 -780 Descending Potomac TRACON
07:46AM 39.2500 -76.5000 159° South 258 297 2,500 -60 Level Potomac TRACON
07:47AM 39.1833 -76.5000 180° South 246 283 2,400 -300 Descending Potomac TRACON
07:48AM 39.1667 -76.5500 247° West 156 180 1,900 -600 Descending Potomac TRACON
07:49AM 39.1667 -76.5833 270° West 116 133 1,200 -780 Descending Potomac TRACON
07:50AM 39.1667 -76.6333 270° West 122 140 500 -780 Descending Potomac TRACON
07:53AM 39.1667 -76.6667 262° West  Level FlightAware Approximate